Mission, TX (78572)

11:07 AM CDT on August 31, 2015 (GMT -0500)
North Cummings Ave | | Change Station
CLOSE
Current Station
Personal Weather Station
Location: Mission, TX
Elevation: 154 ft
Nearby Weather Stations

Elev 154 ft 26.23 °N, 98.33 °W | Updated 16 minutes ago

Partly Cloudy
Partly Cloudy
86.4 °F
Feels Like 98 °F
N
2.7
Wind Variable Wind from East

Today
High -- | Low -- °F
--% Chance of Precip.
Yesterday
High -- | Low -- °F
Precip. -- in
7:12 AM 7:54 PM
Waning Gibbous, 95% visible
Pressure 29.96 in
Visibility 10.0 miles
Clouds Scattered Clouds 1400 ft
Heat Index 98 °F
Dew Point 77 °F
Humidity 74%
Rainfall 0.00 in
Snow Depth Not available.
UV 3 out of 12
Pollen 8.00 out of 12
Air Quality Not available.
Flu Activity Not available.
METAR KMFE 311453Z 15010KT 10SM SCT014 29/24 A2997 RMK AO2 SLP146 T02940244 50011
Pressure 29.96 in
Visibility 10.0 miles
Clouds Scattered Clouds 1400 ft
Heat Index 98 °F
Dew Point 77 °F
Humidity 74%
Rainfall 0.00 in
Snow Depth Not available.
UV 3 out of 12
Pollen 8.00 out of 12
Air Quality Not available.
Flu Activity Not available.
METAR KMFE 311453Z 15010KT 10SM SCT014 29/24 A2997 RMK AO2 SLP146 T02940244 50011

10-Day Weather Forecast

×

Almanac

Astronomy

Aug. 31, 2015 Rise Set
Actual Time
Civil Twilight
Nautical Twilight
Astronomical Twilight
Moon
Length of Visible Light
Length of Day
Tomorrow will be .
, % of the Moon is Illuminated

Today's Extremes

State Highs State Lows

Community

WunderPhotos

Upload Photos

1,851,298 photos uploaded!

WunderBlogs® & News

Nearby

Air Quality

  Air Quality AQ Index Pollutant
Not available.

Snow Depth

Station Depth Elevation

Earthquake Activity

City Distance Mag. Time & Date
Minimum magnitude displayed is 2.5.

Coastal Water Temperatures

Place Temperature

Stations

Nearby Weather Stations

Station Location Temp. Windchill Dew Point Humidity Wind Precip. Elev Updated Type